sensor_id;sensor_type;location;lat;lon;timestamp;P1;durP1;ratioP1;P2;durP2;ratioP2
52718;SDS011;38616;42.140;24.760;2023-04-25T00:01:39;2.40;;;1.52;;
52718;SDS011;38616;42.140;24.760;2023-04-25T00:04:07;2.33;;;1.65;;
52718;SDS011;38616;42.140;24.760;2023-04-25T00:06:36;2.72;;;1.50;;
52718;SDS011;38616;42.140;24.760;2023-04-25T00:09:02;3.40;;;1.70;;
52718;SDS011;38616;42.140;24.760;2023-04-25T00:11:34;1.67;;;1.40;;
52718;SDS011;38616;42.140;24.760;2023-04-25T00:13:59;3.15;;;1.50;;
52718;SDS011;38616;42.140;24.760;2023-04-25T00:16:27;2.00;;;1.20;;
52718;SDS011;38616;42.140;24.760;2023-04-25T00:18:54;1.52;;;1.42;;
52718;SDS011;38616;42.140;24.760;2023-04-25T00:21:20;3.92;;;2.10;;
52718;SDS011;38616;42.140;24.760;2023-04-25T00:23:46;3.65;;;1.80;;
52718;SDS011;38616;42.140;24.760;2023-04-25T00:26:12;3.58;;;2.08;;
52718;SDS011;38616;42.140;24.760;2023-04-25T00:28:38;2.78;;;1.75;;
52718;SDS011;38616;42.140;24.760;2023-04-25T00:31:05;3.05;;;1.58;;
52718;SDS011;38616;42.140;24.760;2023-04-25T00:33:30;2.47;;;1.80;;
52718;SDS011;38616;42.140;24.760;2023-04-25T00:35:56;4.57;;;1.80;;
52718;SDS011;38616;42.140;24.760;2023-04-25T00:38:21;3.03;;;1.90;;
52718;SDS011;38616;42.140;24.760;2023-04-25T00:40:47;2.13;;;1.77;;
52718;SDS011;38616;42.140;24.760;2023-04-25T00:43:13;1.92;;;1.48;;
52718;SDS011;38616;42.140;24.760;2023-04-25T00:45:39;2.13;;;1.60;;
52718;SDS011;38616;42.140;24.760;2023-04-25T00:48:05;3.80;;;1.98;;
52718;SDS011;38616;42.140;24.760;2023-04-25T00:50:32;3.20;;;1.80;;
52718;SDS011;38616;42.140;24.760;2023-04-25T00:55:25;3.28;;;2.13;;
52718;SDS011;38616;42.140;24.760;2023-04-25T00:57:51;4.05;;;1.80;;
52718;SDS011;38616;42.140;24.760;2023-04-25T01:00:16;1.85;;;1.63;;
52718;SDS011;38616;42.140;24.760;2023-04-25T01:02:43;5.30;;;2.05;;
52718;SDS011;38616;42.140;24.760;2023-04-25T01:05:09;2.28;;;1.90;;
52718;SDS011;38616;42.140;24.760;2023-04-25T01:07:35;3.60;;;1.70;;
52718;SDS011;38616;42.140;24.760;2023-04-25T01:10:00;2.00;;;1.63;;
52718;SDS011;38616;42.140;24.760;2023-04-25T01:12:26;3.53;;;1.80;;
52718;SDS011;38616;42.140;24.760;2023-04-25T01:14:51;4.18;;;1.90;;
52718;SDS011;38616;42.140;24.760;2023-04-25T01:17:17;2.75;;;1.83;;
52718;SDS011;38616;42.140;24.760;2023-04-25T01:19:44;3.83;;;2.28;;
52718;SDS011;38616;42.140;24.760;2023-04-25T01:22:13;2.55;;;1.63;;
52718;SDS011;38616;42.140;24.760;2023-04-25T01:24:39;4.25;;;1.88;;
52718;SDS011;38616;42.140;24.760;2023-04-25T01:27:04;4.53;;;2.72;;
52718;SDS011;38616;42.140;24.760;2023-04-25T01:29:31;3.55;;;1.83;;
52718;SDS011;38616;42.140;24.760;2023-04-25T01:31:57;2.33;;;1.92;;
52718;SDS011;38616;42.140;24.760;2023-04-25T01:34:24;4.65;;;2.40;;
52718;SDS011;38616;42.140;24.760;2023-04-25T01:36:50;2.75;;;2.13;;
52718;SDS011;38616;42.140;24.760;2023-04-25T01:39:19;3.83;;;2.10;;
52718;SDS011;38616;42.140;24.760;2023-04-25T01:41:45;2.65;;;1.80;;
52718;SDS011;38616;42.140;24.760;2023-04-25T01:44:13;2.22;;;1.70;;
52718;SDS011;38616;42.140;24.760;2023-04-25T01:46:39;2.75;;;2.00;;
52718;SDS011;38616;42.140;24.760;2023-04-25T01:49:05;3.97;;;1.90;;
52718;SDS011;38616;42.140;24.760;2023-04-25T01:51:31;3.20;;;2.10;;
52718;SDS011;38616;42.140;24.760;2023-04-25T01:53:57;5.72;;;2.35;;
52718;SDS011;38616;42.140;24.760;2023-04-25T01:56:22;2.05;;;1.85;;
52718;SDS011;38616;42.140;24.760;2023-04-25T01:58:48;4.57;;;2.40;;
52718;SDS011;38616;42.140;24.760;2023-04-25T02:01:14;2.50;;;2.25;;
52718;SDS011;38616;42.140;24.760;2023-04-25T02:03:39;4.93;;;2.78;;
52718;SDS011;38616;42.140;24.760;2023-04-25T02:06:05;4.85;;;2.80;;
52718;SDS011;38616;42.140;24.760;2023-04-25T02:08:30;4.70;;;3.25;;
52718;SDS011;38616;42.140;24.760;2023-04-25T02:10:56;7.43;;;3.53;;
52718;SDS011;38616;42.140;24.760;2023-04-25T02:13:22;8.07;;;3.78;;
52718;SDS011;38616;42.140;24.760;2023-04-25T02:15:47;4.45;;;3.28;;
52718;SDS011;38616;42.140;24.760;2023-04-25T02:18:12;7.55;;;4.10;;
52718;SDS011;38616;42.140;24.760;2023-04-25T02:20:40;5.80;;;4.05;;
52718;SDS011;38616;42.140;24.760;2023-04-25T02:23:06;8.20;;;4.00;;
52718;SDS011;38616;42.140;24.760;2023-04-25T02:25:32;5.50;;;3.85;;
52718;SDS011;38616;42.140;24.760;2023-04-25T02:27:57;7.13;;;4.10;;
52718;SDS011;38616;42.140;24.760;2023-04-25T02:30:22;7.18;;;4.53;;
52718;SDS011;38616;42.140;24.760;2023-04-25T02:32:48;6.15;;;3.78;;
52718;SDS011;38616;42.140;24.760;2023-04-25T02:35:13;6.60;;;3.95;;
52718;SDS011;38616;42.140;24.760;2023-04-25T02:37:39;6.55;;;3.80;;
52718;SDS011;38616;42.140;24.760;2023-04-25T02:40:05;6.63;;;3.83;;
52718;SDS011;38616;42.140;24.760;2023-04-25T02:42:31;6.75;;;3.80;;
52718;SDS011;38616;42.140;24.760;2023-04-25T02:44:57;5.68;;;3.00;;
52718;SDS011;38616;42.140;24.760;2023-04-25T02:47:22;6.60;;;3.58;;
52718;SDS011;38616;42.140;24.760;2023-04-25T02:49:48;4.50;;;3.20;;
52718;SDS011;38616;42.140;24.760;2023-04-25T02:52:13;8.68;;;3.78;;
52718;SDS011;38616;42.140;24.760;2023-04-25T02:54:39;6.63;;;3.70;;
52718;SDS011;38616;42.140;24.760;2023-04-25T02:57:05;5.78;;;3.65;;
52718;SDS011;38616;42.140;24.760;2023-04-25T02:59:31;6.60;;;3.55;;
52718;SDS011;38616;42.140;24.760;2023-04-25T03:01:56;5.40;;;3.55;;
52718;SDS011;38616;42.140;24.760;2023-04-25T03:04:21;6.38;;;3.75;;
52718;SDS011;38616;42.140;24.760;2023-04-25T03:06:48;7.00;;;4.32;;
52718;SDS011;38616;42.140;24.760;2023-04-25T03:09:15;9.07;;;5.22;;
52718;SDS011;38616;42.140;24.760;2023-04-25T03:11:41;7.28;;;4.30;;
52718;SDS011;38616;42.140;24.760;2023-04-25T03:14:06;8.10;;;4.65;;
52718;SDS011;38616;42.140;24.760;2023-04-25T03:16:31;8.98;;;4.00;;
52718;SDS011;38616;42.140;24.760;2023-04-25T03:19:01;9.32;;;4.50;;
52718;SDS011;38616;42.140;24.760;2023-04-25T03:21:27;8.60;;;4.70;;
52718;SDS011;38616;42.140;24.760;2023-04-25T03:23:53;8.65;;;4.68;;
52718;SDS011;38616;42.140;24.760;2023-04-25T03:26:18;10.00;;;4.80;;
52718;SDS011;38616;42.140;24.760;2023-04-25T03:28:44;11.35;;;5.38;;
52718;SDS011;38616;42.140;24.760;2023-04-25T03:31:10;13.15;;;7.57;;
52718;SDS011;38616;42.140;24.760;2023-04-25T03:33:35;8.90;;;4.55;;
52718;SDS011;38616;42.140;24.760;2023-04-25T03:36:00;7.45;;;4.38;;
52718;SDS011;38616;42.140;24.760;2023-04-25T03:38:26;7.43;;;4.30;;
52718;SDS011;38616;42.140;24.760;2023-04-25T03:40:51;10.65;;;5.40;;
52718;SDS011;38616;42.140;24.760;2023-04-25T03:43:19;10.13;;;5.05;;
52718;SDS011;38616;42.140;24.760;2023-04-25T03:45:44;9.88;;;4.32;;
52718;SDS011;38616;42.140;24.760;2023-04-25T03:48:09;7.32;;;4.15;;
52718;SDS011;38616;42.140;24.760;2023-04-25T03:50:35;8.77;;;4.60;;
52718;SDS011;38616;42.140;24.760;2023-04-25T03:53:00;9.90;;;4.95;;
52718;SDS011;38616;42.140;24.760;2023-04-25T03:55:26;7.10;;;4.68;;
52718;SDS011;38616;42.140;24.760;2023-04-25T03:57:51;8.40;;;4.25;;
52718;SDS011;38616;42.140;24.760;2023-04-25T04:00:16;9.23;;;4.25;;
52718;SDS011;38616;42.140;24.760;2023-04-25T04:02:42;11.00;;;5.80;;
52718;SDS011;38616;42.140;24.760;2023-04-25T04:05:07;10.82;;;6.43;;
52718;SDS011;38616;42.140;24.760;2023-04-25T04:07:33;10.13;;;5.68;;
52718;SDS011;38616;42.140;24.760;2023-04-25T04:10:01;12.43;;;4.82;;
52718;SDS011;38616;42.140;24.760;2023-04-25T04:12:27;8.45;;;4.65;;
52718;SDS011;38616;42.140;24.760;2023-04-25T04:14:52;9.50;;;5.20;;
52718;SDS011;38616;42.140;24.760;2023-04-25T04:17:17;8.05;;;4.90;;
52718;SDS011;38616;42.140;24.760;2023-04-25T04:19:43;10.75;;;4.85;;
52718;SDS011;38616;42.140;24.760;2023-04-25T04:22:09;9.20;;;5.25;;
52718;SDS011;38616;42.140;24.760;2023-04-25T04:24:34;9.90;;;5.30;;
52718;SDS011;38616;42.140;24.760;2023-04-25T04:27:00;10.23;;;5.35;;
52718;SDS011;38616;42.140;24.760;2023-04-25T04:29:25;9.48;;;5.63;;
52718;SDS011;38616;42.140;24.760;2023-04-25T04:31:52;8.50;;;5.25;;
52718;SDS011;38616;42.140;24.760;2023-04-25T04:34:18;8.38;;;5.18;;
52718;SDS011;38616;42.140;24.760;2023-04-25T04:36:46;12.70;;;7.28;;
52718;SDS011;38616;42.140;24.760;2023-04-25T04:39:12;10.98;;;6.28;;
52718;SDS011;38616;42.140;24.760;2023-04-25T04:41:37;12.90;;;7.25;;
52718;SDS011;38616;42.140;24.760;2023-04-25T04:44:05;10.77;;;6.25;;
52718;SDS011;38616;42.140;24.760;2023-04-25T04:46:32;13.00;;;7.82;;
52718;SDS011;38616;42.140;24.760;2023-04-25T04:49:04;13.25;;;7.63;;
52718;SDS011;38616;42.140;24.760;2023-04-25T04:51:30;11.70;;;6.30;;
52718;SDS011;38616;42.140;24.760;2023-04-25T04:53:56;11.38;;;6.10;;
52718;SDS011;38616;42.140;24.760;2023-04-25T04:56:23;11.30;;;7.30;;
52718;SDS011;38616;42.140;24.760;2023-04-25T04:58:50;23.63;;;12.98;;
52718;SDS011;38616;42.140;24.760;2023-04-25T05:01:16;20.65;;;12.68;;
52718;SDS011;38616;42.140;24.760;2023-04-25T05:03:41;19.85;;;11.23;;
52718;SDS011;38616;42.140;24.760;2023-04-25T05:06:06;23.42;;;13.23;;
52718;SDS011;38616;42.140;24.760;2023-04-25T05:08:33;17.15;;;10.27;;
52718;SDS011;38616;42.140;24.760;2023-04-25T05:11:01;25.77;;;9.55;;
52718;SDS011;38616;42.140;24.760;2023-04-25T05:13:27;18.30;;;11.32;;
52718;SDS011;38616;42.140;24.760;2023-04-25T05:15:52;13.07;;;7.15;;
52718;SDS011;38616;42.140;24.760;2023-04-25T05:18:17;13.55;;;7.10;;
52718;SDS011;38616;42.140;24.760;2023-04-25T05:20:43;12.05;;;6.57;;
52718;SDS011;38616;42.140;24.760;2023-04-25T05:23:08;16.27;;;8.27;;
52718;SDS011;38616;42.140;24.760;2023-04-25T05:25:34;10.20;;;6.53;;
52718;SDS011;38616;42.140;24.760;2023-04-25T05:27:59;14.73;;;7.30;;
52718;SDS011;38616;42.140;24.760;2023-04-25T05:30:25;12.02;;;7.15;;
52718;SDS011;38616;42.140;24.760;2023-04-25T05:32:50;17.92;;;8.60;;
52718;SDS011;38616;42.140;24.760;2023-04-25T05:35:16;17.27;;;8.02;;
52718;SDS011;38616;42.140;24.760;2023-04-25T05:37:41;17.10;;;8.82;;
52718;SDS011;38616;42.140;24.760;2023-04-25T05:40:08;15.52;;;7.80;;
52718;SDS011;38616;42.140;24.760;2023-04-25T05:42:34;13.38;;;8.07;;
52718;SDS011;38616;42.140;24.760;2023-04-25T05:44:59;13.63;;;7.95;;
52718;SDS011;38616;42.140;24.760;2023-04-25T05:47:25;14.70;;;8.57;;
52718;SDS011;38616;42.140;24.760;2023-04-25T05:49:51;18.63;;;8.52;;
52718;SDS011;38616;42.140;24.760;2023-04-25T05:52:16;14.77;;;8.43;;
52718;SDS011;38616;42.140;24.760;2023-04-25T05:54:42;16.20;;;9.18;;
52718;SDS011;38616;42.140;24.760;2023-04-25T05:57:07;17.13;;;8.52;;
52718;SDS011;38616;42.140;24.760;2023-04-25T05:59:32;17.50;;;9.30;;
52718;SDS011;38616;42.140;24.760;2023-04-25T06:01:58;22.05;;;10.70;;
52718;SDS011;38616;42.140;24.760;2023-04-25T06:04:24;21.48;;;9.90;;
52718;SDS011;38616;42.140;24.760;2023-04-25T06:06:50;19.27;;;9.25;;
52718;SDS011;38616;42.140;24.760;2023-04-25T06:09:15;19.58;;;10.68;;
52718;SDS011;38616;42.140;24.760;2023-04-25T06:11:41;17.63;;;8.80;;
52718;SDS011;38616;42.140;24.760;2023-04-25T06:14:06;15.18;;;7.85;;
52718;SDS011;38616;42.140;24.760;2023-04-25T06:16:32;13.05;;;7.18;;
52718;SDS011;38616;42.140;24.760;2023-04-25T06:18:58;15.52;;;7.28;;
52718;SDS011;38616;42.140;24.760;2023-04-25T06:21:23;13.77;;;7.43;;
52718;SDS011;38616;42.140;24.760;2023-04-25T06:23:48;19.08;;;9.13;;
52718;SDS011;38616;42.140;24.760;2023-04-25T06:26:14;17.85;;;9.18;;
52718;SDS011;38616;42.140;24.760;2023-04-25T06:28:39;14.30;;;8.18;;
52718;SDS011;38616;42.140;24.760;2023-04-25T06:31:05;15.38;;;8.85;;
52718;SDS011;38616;42.140;24.760;2023-04-25T06:33:30;13.50;;;8.10;;
52718;SDS011;38616;42.140;24.760;2023-04-25T06:35:56;16.73;;;8.45;;
52718;SDS011;38616;42.140;24.760;2023-04-25T06:38:21;15.43;;;8.27;;
52718;SDS011;38616;42.140;24.760;2023-04-25T06:40:46;15.25;;;9.32;;
52718;SDS011;38616;42.140;24.760;2023-04-25T06:43:12;13.95;;;8.35;;
52718;SDS011;38616;42.140;24.760;2023-04-25T06:45:38;16.05;;;9.77;;
52718;SDS011;38616;42.140;24.760;2023-04-25T06:48:03;15.70;;;9.10;;
52718;SDS011;38616;42.140;24.760;2023-04-25T06:50:29;17.67;;;8.48;;
52718;SDS011;38616;42.140;24.760;2023-04-25T06:52:54;14.88;;;9.60;;
52718;SDS011;38616;42.140;24.760;2023-04-25T06:55:19;15.48;;;9.00;;
52718;SDS011;38616;42.140;24.760;2023-04-25T06:57:45;15.07;;;8.95;;
52718;SDS011;38616;42.140;24.760;2023-04-25T07:00:10;13.88;;;8.98;;
52718;SDS011;38616;42.140;24.760;2023-04-25T07:02:36;12.40;;;7.63;;
52718;SDS011;38616;42.140;24.760;2023-04-25T07:05:02;17.88;;;8.35;;
52718;SDS011;38616;42.140;24.760;2023-04-25T07:07:29;14.95;;;8.40;;
52718;SDS011;38616;42.140;24.760;2023-04-25T07:09:55;14.35;;;8.43;;
52718;SDS011;38616;42.140;24.760;2023-04-25T07:12:21;17.15;;;8.75;;
52718;SDS011;38616;42.140;24.760;2023-04-25T07:14:46;13.13;;;8.15;;
52718;SDS011;38616;42.140;24.760;2023-04-25T07:17:12;17.35;;;7.97;;
52718;SDS011;38616;42.140;24.760;2023-04-25T07:19:37;14.25;;;8.07;;
52718;SDS011;38616;42.140;24.760;2023-04-25T07:22:04;15.25;;;8.52;;
52718;SDS011;38616;42.140;24.760;2023-04-25T07:24:30;14.00;;;8.23;;
52718;SDS011;38616;42.140;24.760;2023-04-25T07:26:55;16.42;;;8.68;;
52718;SDS011;38616;42.140;24.760;2023-04-25T07:29:21;17.15;;;8.43;;
52718;SDS011;38616;42.140;24.760;2023-04-25T07:31:46;14.63;;;8.82;;
52718;SDS011;38616;42.140;24.760;2023-04-25T07:34:12;17.85;;;8.13;;
52718;SDS011;38616;42.140;24.760;2023-04-25T07:36:37;21.80;;;8.38;;
52718;SDS011;38616;42.140;24.760;2023-04-25T07:39:02;15.85;;;8.60;;
52718;SDS011;38616;42.140;24.760;2023-04-25T07:41:30;13.98;;;8.27;;
52718;SDS011;38616;42.140;24.760;2023-04-25T07:46:21;12.90;;;7.40;;
52718;SDS011;38616;42.140;24.760;2023-04-25T07:48:46;12.38;;;7.32;;
52718;SDS011;38616;42.140;24.760;2023-04-25T07:51:12;12.88;;;6.95;;
52718;SDS011;38616;42.140;24.760;2023-04-25T07:53:37;15.52;;;8.35;;
52718;SDS011;38616;42.140;24.760;2023-04-25T07:56:06;21.48;;;9.68;;
52718;SDS011;38616;42.140;24.760;2023-04-25T07:58:31;13.75;;;7.05;;
52718;SDS011;38616;42.140;24.760;2023-04-25T08:00:57;13.80;;;7.22;;
52718;SDS011;38616;42.140;24.760;2023-04-25T08:03:22;16.52;;;7.05;;
52718;SDS011;38616;42.140;24.760;2023-04-25T08:05:48;14.98;;;7.25;;
52718;SDS011;38616;42.140;24.760;2023-04-25T08:08:13;12.55;;;6.85;;
52718;SDS011;38616;42.140;24.760;2023-04-25T08:10:38;16.45;;;7.18;;
52718;SDS011;38616;42.140;24.760;2023-04-25T08:13:04;12.65;;;7.18;;
52718;SDS011;38616;42.140;24.760;2023-04-25T08:15:29;11.45;;;6.53;;
52718;SDS011;38616;42.140;24.760;2023-04-25T08:17:55;11.52;;;6.35;;
52718;SDS011;38616;42.140;24.760;2023-04-25T08:20:20;9.48;;;5.30;;
52718;SDS011;38616;42.140;24.760;2023-04-25T08:22:46;8.35;;;5.00;;
52718;SDS011;38616;42.140;24.760;2023-04-25T08:25:13;6.70;;;4.03;;
52718;SDS011;38616;42.140;24.760;2023-04-25T08:27:39;11.70;;;4.80;;
52718;SDS011;38616;42.140;24.760;2023-04-25T08:30:04;8.57;;;4.50;;
52718;SDS011;38616;42.140;24.760;2023-04-25T08:32:30;11.98;;;4.85;;
52718;SDS011;38616;42.140;24.760;2023-04-25T08:34:56;8.45;;;4.40;;
52718;SDS011;38616;42.140;24.760;2023-04-25T08:37:21;9.80;;;3.15;;
52718;SDS011;38616;42.140;24.760;2023-04-25T08:39:47;5.00;;;3.33;;
52718;SDS011;38616;42.140;24.760;2023-04-25T08:42:16;5.22;;;2.40;;
52718;SDS011;38616;42.140;24.760;2023-04-25T08:44:42;6.15;;;2.70;;
52718;SDS011;38616;42.140;24.760;2023-04-25T08:47:10;4.75;;;2.78;;
52718;SDS011;38616;42.140;24.760;2023-04-25T08:49:35;9.23;;;2.70;;
52718;SDS011;38616;42.140;24.760;2023-04-25T08:52:02;5.90;;;2.30;;
52718;SDS011;38616;42.140;24.760;2023-04-25T08:54:31;4.10;;;2.38;;
52718;SDS011;38616;42.140;24.760;2023-04-25T08:56:59;4.40;;;2.58;;
52718;SDS011;38616;42.140;24.760;2023-04-25T08:59:27;5.65;;;2.75;;
52718;SDS011;38616;42.140;24.760;2023-04-25T09:01:53;5.72;;;2.47;;
52718;SDS011;38616;42.140;24.760;2023-04-25T09:04:18;5.07;;;2.40;;
52718;SDS011;38616;42.140;24.760;2023-04-25T09:06:45;6.97;;;2.65;;
52718;SDS011;38616;42.140;24.760;2023-04-25T09:09:11;10.25;;;4.65;;
52718;SDS011;38616;42.140;24.760;2023-04-25T09:11:37;5.60;;;3.10;;
52718;SDS011;38616;42.140;24.760;2023-04-25T09:16:56;5.13;;;2.67;;
52718;SDS011;38616;42.140;24.760;2023-04-25T09:19:22;4.88;;;3.05;;
52718;SDS011;38616;42.140;24.760;2023-04-25T09:21:49;7.45;;;3.10;;
52718;SDS011;38616;42.140;24.760;2023-04-25T09:24:15;7.20;;;3.92;;
52718;SDS011;38616;42.140;24.760;2023-04-25T09:26:41;4.72;;;2.55;;
52718;SDS011;38616;42.140;24.760;2023-04-25T09:29:07;8.15;;;3.95;;
52718;SDS011;38616;42.140;24.760;2023-04-25T09:31:32;7.22;;;2.88;;
52718;SDS011;38616;42.140;24.760;2023-04-25T09:33:59;5.90;;;2.70;;
52718;SDS011;38616;42.140;24.760;2023-04-25T09:36:26;3.53;;;2.30;;
52718;SDS011;38616;42.140;24.760;2023-04-25T09:38:52;4.22;;;2.42;;
52718;SDS011;38616;42.140;24.760;2023-04-25T09:41:22;4.05;;;2.70;;
52718;SDS011;38616;42.140;24.760;2023-04-25T09:43:49;4.80;;;2.97;;
52718;SDS011;38616;42.140;24.760;2023-04-25T09:46:15;7.72;;;2.70;;
52718;SDS011;38616;42.140;24.760;2023-04-25T09:48:47;3.03;;;2.50;;
52718;SDS011;38616;42.140;24.760;2023-04-25T09:51:15;3.88;;;2.35;;
52718;SDS011;38616;42.140;24.760;2023-04-25T09:53:41;7.47;;;2.83;;
52718;SDS011;38616;42.140;24.760;2023-04-25T09:56:16;3.00;;;2.38;;
52718;SDS011;38616;42.140;24.760;2023-04-25T09:58:41;4.78;;;2.80;;
52718;SDS011;38616;42.140;24.760;2023-04-25T10:01:08;3.40;;;2.72;;
52718;SDS011;38616;42.140;24.760;2023-04-25T10:06:02;6.68;;;2.63;;
52718;SDS011;38616;42.140;24.760;2023-04-25T10:11:02;4.50;;;3.08;;
52718;SDS011;38616;42.140;24.760;2023-04-25T10:13:30;3.00;;;1.98;;
52718;SDS011;38616;42.140;24.760;2023-04-25T10:15:59;6.03;;;3.50;;
52718;SDS011;38616;42.140;24.760;2023-04-25T10:18:29;3.25;;;2.50;;
52718;SDS011;38616;42.140;24.760;2023-04-25T10:21:02;4.00;;;2.58;;
52718;SDS011;38616;42.140;24.760;2023-04-25T10:23:30;5.05;;;2.20;;
52718;SDS011;38616;42.140;24.760;2023-04-25T10:25:56;3.88;;;2.33;;
52718;SDS011;38616;42.140;24.760;2023-04-25T10:28:23;6.38;;;2.25;;
52718;SDS011;38616;42.140;24.760;2023-04-25T10:31:06;7.68;;;3.40;;
52718;SDS011;38616;42.140;24.760;2023-04-25T10:33:41;3.28;;;2.20;;
52718;SDS011;38616;42.140;24.760;2023-04-25T10:36:14;2.70;;;1.92;;
52718;SDS011;38616;42.140;24.760;2023-04-25T10:38:43;2.90;;;1.50;;
52718;SDS011;38616;42.140;24.760;2023-04-25T10:41:10;2.38;;;2.08;;
52718;SDS011;38616;42.140;24.760;2023-04-25T10:43:39;3.22;;;2.10;;
52718;SDS011;38616;42.140;24.760;2023-04-25T10:46:18;7.43;;;2.05;;
52718;SDS011;38616;42.140;24.760;2023-04-25T10:48:57;3.42;;;2.20;;
52718;SDS011;38616;42.140;24.760;2023-04-25T10:51:24;2.90;;;1.95;;
52718;SDS011;38616;42.140;24.760;2023-04-25T10:56:20;3.40;;;2.58;;
52718;SDS011;38616;42.140;24.760;2023-04-25T10:58:46;3.50;;;2.00;;
52718;SDS011;38616;42.140;24.760;2023-04-25T11:01:24;6.10;;;1.92;;
52718;SDS011;38616;42.140;24.760;2023-04-25T11:03:56;3.65;;;1.88;;
52718;SDS011;38616;42.140;24.760;2023-04-25T11:06:23;4.88;;;2.97;;
52718;SDS011;38616;42.140;24.760;2023-04-25T11:08:54;4.68;;;2.42;;
52718;SDS011;38616;42.140;24.760;2023-04-25T11:11:20;4.47;;;2.38;;
52718;SDS011;38616;42.140;24.760;2023-04-25T11:13:49;3.75;;;2.58;;
52718;SDS011;38616;42.140;24.760;2023-04-25T11:16:15;4.60;;;2.90;;
52718;SDS011;38616;42.140;24.760;2023-04-25T11:18:42;6.60;;;3.17;;
52718;SDS011;38616;42.140;24.760;2023-04-25T11:21:08;4.80;;;2.55;;
52718;SDS011;38616;42.140;24.760;2023-04-25T11:23:34;8.43;;;2.42;;
52718;SDS011;38616;42.140;24.760;2023-04-25T11:26:00;11.85;;;2.90;;
52718;SDS011;38616;42.140;24.760;2023-04-25T11:28:26;4.40;;;2.55;;
52718;SDS011;38616;42.140;24.760;2023-04-25T11:30:52;4.68;;;2.58;;
52718;SDS011;38616;42.140;24.760;2023-04-25T11:33:18;3.25;;;2.40;;
52718;SDS011;38616;42.140;24.760;2023-04-25T11:35:48;5.03;;;2.90;;
52718;SDS011;38616;42.140;24.760;2023-04-25T11:38:14;7.55;;;2.85;;
52718;SDS011;38616;42.140;24.760;2023-04-25T11:40:40;4.70;;;2.75;;
52718;SDS011;38616;42.140;24.760;2023-04-25T11:43:05;8.07;;;2.80;;
52718;SDS011;38616;42.140;24.760;2023-04-25T11:45:32;5.72;;;2.78;;
52718;SDS011;38616;42.140;24.760;2023-04-25T11:47:57;4.80;;;2.67;;
52718;SDS011;38616;42.140;24.760;2023-04-25T11:50:23;6.32;;;3.10;;
52718;SDS011;38616;42.140;24.760;2023-04-25T11:52:48;4.00;;;3.00;;
52718;SDS011;38616;42.140;24.760;2023-04-25T11:55:19;6.55;;;3.58;;
52718;SDS011;38616;42.140;24.760;2023-04-25T11:57:46;14.80;;;8.18;;
52718;SDS011;38616;42.140;24.760;2023-04-25T12:02:46;7.82;;;4.70;;
52718;SDS011;38616;42.140;24.760;2023-04-25T12:05:13;3.42;;;2.58;;
52718;SDS011;38616;42.140;24.760;2023-04-25T12:07:40;5.82;;;2.67;;
52718;SDS011;38616;42.140;24.760;2023-04-25T12:10:06;3.97;;;2.67;;
52718;SDS011;38616;42.140;24.760;2023-04-25T12:12:37;4.30;;;3.10;;
52718;SDS011;38616;42.140;24.760;2023-04-25T12:15:13;6.60;;;2.80;;
52718;SDS011;38616;42.140;24.760;2023-04-25T12:17:46;4.32;;;2.88;;
52718;SDS011;38616;42.140;24.760;2023-04-25T12:20:14;5.28;;;2.85;;
52718;SDS011;38616;42.140;24.760;2023-04-25T12:22:49;3.65;;;2.65;;
52718;SDS011;38616;42.140;24.760;2023-04-25T12:31:03;3.30;;;2.35;;
52718;SDS011;38616;42.140;24.760;2023-04-25T12:33:33;4.82;;;3.08;;
52718;SDS011;38616;42.140;24.760;2023-04-25T12:36:00;7.68;;;3.00;;
52718;SDS011;38616;42.140;24.760;2023-04-25T12:38:36;6.65;;;4.05;;
52718;SDS011;38616;42.140;24.760;2023-04-25T12:41:05;5.97;;;3.38;;
52718;SDS011;38616;42.140;24.760;2023-04-25T12:43:31;8.38;;;3.40;;
52718;SDS011;38616;42.140;24.760;2023-04-25T12:45:57;5.72;;;2.80;;
52718;SDS011;38616;42.140;24.760;2023-04-25T12:48:23;8.40;;;2.80;;
52718;SDS011;38616;42.140;24.760;2023-04-25T12:50:49;7.72;;;3.08;;
52718;SDS011;38616;42.140;24.760;2023-04-25T12:53:16;6.28;;;2.72;;
52718;SDS011;38616;42.140;24.760;2023-04-25T12:55:45;6.95;;;2.63;;
52718;SDS011;38616;42.140;24.760;2023-04-25T12:58:12;7.88;;;3.75;;
52718;SDS011;38616;42.140;24.760;2023-04-25T13:00:38;6.95;;;3.53;;
52718;SDS011;38616;42.140;24.760;2023-04-25T13:03:04;6.72;;;3.63;;
52718;SDS011;38616;42.140;24.760;2023-04-25T13:05:29;5.70;;;3.03;;
52718;SDS011;38616;42.140;24.760;2023-04-25T13:07:55;4.97;;;2.83;;
52718;SDS011;38616;42.140;24.760;2023-04-25T13:10:20;3.95;;;2.60;;
52718;SDS011;38616;42.140;24.760;2023-04-25T13:12:46;3.97;;;2.33;;
52718;SDS011;38616;42.140;24.760;2023-04-25T13:15:11;4.57;;;2.80;;
52718;SDS011;38616;42.140;24.760;2023-04-25T13:17:37;3.80;;;2.40;;
52718;SDS011;38616;42.140;24.760;2023-04-25T13:20:04;5.35;;;1.83;;
52718;SDS011;38616;42.140;24.760;2023-04-25T13:22:37;5.97;;;2.42;;
52718;SDS011;38616;42.140;24.760;2023-04-25T13:25:04;1.73;;;1.42;;
52718;SDS011;38616;42.140;24.760;2023-04-25T13:29:58;6.55;;;1.70;;
52718;SDS011;38616;42.140;24.760;2023-04-25T13:32:25;9.85;;;1.90;;
52718;SDS011;38616;42.140;24.760;2023-04-25T13:34:50;5.93;;;1.95;;
52718;SDS011;38616;42.140;24.760;2023-04-25T13:37:16;1.98;;;1.42;;
52718;SDS011;38616;42.140;24.760;2023-04-25T13:39:41;3.90;;;1.75;;
52718;SDS011;38616;42.140;24.760;2023-04-25T13:42:07;2.63;;;1.60;;
52718;SDS011;38616;42.140;24.760;2023-04-25T13:44:32;3.13;;;1.40;;
52718;SDS011;38616;42.140;24.760;2023-04-25T13:46:57;2.22;;;1.20;;
52718;SDS011;38616;42.140;24.760;2023-04-25T13:49:25;3.63;;;1.30;;
52718;SDS011;38616;42.140;24.760;2023-04-25T13:51:51;5.63;;;1.25;;
52718;SDS011;38616;42.140;24.760;2023-04-25T13:54:16;1.58;;;1.35;;
52718;SDS011;38616;42.140;24.760;2023-04-25T13:56:41;1.92;;;1.20;;
52718;SDS011;38616;42.140;24.760;2023-04-25T13:59:07;1.60;;;1.40;;
52718;SDS011;38616;42.140;24.760;2023-04-25T14:01:32;1.65;;;1.30;;
52718;SDS011;38616;42.140;24.760;2023-04-25T14:04:00;1.23;;;0.93;;
52718;SDS011;38616;42.140;24.760;2023-04-25T14:06:26;1.85;;;1.35;;
52718;SDS011;38616;42.140;24.760;2023-04-25T14:08:52;2.13;;;1.30;;
52718;SDS011;38616;42.140;24.760;2023-04-25T14:11:18;4.90;;;1.90;;
52718;SDS011;38616;42.140;24.760;2023-04-25T14:13:44;4.18;;;2.15;;
52718;SDS011;38616;42.140;24.760;2023-04-25T14:16:10;4.60;;;3.20;;
52718;SDS011;38616;42.140;24.760;2023-04-25T14:18:35;3.60;;;2.35;;
52718;SDS011;38616;42.140;24.760;2023-04-25T14:21:01;4.53;;;1.98;;
52718;SDS011;38616;42.140;24.760;2023-04-25T14:23:26;2.70;;;1.75;;
52718;SDS011;38616;42.140;24.760;2023-04-25T14:25:51;4.32;;;1.40;;
52718;SDS011;38616;42.140;24.760;2023-04-25T14:28:17;1.77;;;1.35;;
52718;SDS011;38616;42.140;24.760;2023-04-25T14:30:42;5.13;;;1.42;;
52718;SDS011;38616;42.140;24.760;2023-04-25T14:33:08;5.47;;;2.92;;
52718;SDS011;38616;42.140;24.760;2023-04-25T14:35:36;3.67;;;1.40;;
52718;SDS011;38616;42.140;24.760;2023-04-25T14:38:01;4.90;;;1.60;;
52718;SDS011;38616;42.140;24.760;2023-04-25T14:40:27;2.78;;;1.30;;
52718;SDS011;38616;42.140;24.760;2023-04-25T14:42:52;2.10;;;1.33;;
52718;SDS011;38616;42.140;24.760;2023-04-25T14:45:17;2.30;;;1.30;;
52718;SDS011;38616;42.140;24.760;2023-04-25T14:47:45;2.85;;;1.60;;
52718;SDS011;38616;42.140;24.760;2023-04-25T14:50:11;1.85;;;1.38;;
52718;SDS011;38616;42.140;24.760;2023-04-25T14:52:37;3.42;;;1.58;;